Main page
METAR-TAF:

METAR-TAF

Airports :

RAF Shawbury

Shawbury, England

latitude: 52-48N, longitude: 002-40W, elevation: 76 m

Current weather observation

The report was made 1 hour and 1 minutes ago, at 15:50 UTC
Wind 11 kt from the South
Temperature 11°C
Humidity 87%
Pressure 1009 hPa
Visibility 10 km or more
Few clouds at a height of 1400 ft
Scattered clouds at a height of 18000 ft

METAR: EGOS 231550Z 17011KT 9999 FEW014 SCT180 11/09 Q1009 TEMPO SCT018 RMK BLU TEMPO WHT

Time: 17:51 (16:51 UTC)

Forecast

The report was made 3 hours and 16 minutes ago, at 13:35 UTC
Forecast valid from 23 at 15 UTC to 23 at 18 UTC
Wind 10 kt from the South
Visibility 10 km or more
Scattered clouds at a height of 1500 ft
Broken clouds at a height of 2500 ft
Temporary
from 23 at 15 UTC to 23 at 18 UTC
Few clouds at a height of 2000 ft
Broken clouds at a height of 2500 ft

TAF: EGOS 231335Z 2315/2318 18010KT 9999 SCT015 BKN025 TEMPO 2315/2318 FEW020 BKN025

Weather observations and forecasts of more than 4000 airports (METAR and TAF reports).

The available stations are represented by yellow and red dots on the map.

Hover mouse over dot to see the name of the station.

Then click to see weather observations and forecasts.

To change the map : click on the green buttons with a black cross to zoom in, on the green button with a dash to zoom out, or on the green arrows for adjacent maps.


METAR-TAF: